createdAt,value
2023-04-16T00:01:19.802Z,102545.53
2023-04-16T00:03:50.822Z,102547.34
2023-04-16T00:06:23.224Z,102555.44
2023-04-16T00:08:54.891Z,102547.81
2023-04-16T00:11:26.091Z,102544.56
2023-04-16T00:13:57.593Z,102526.47
2023-04-16T00:16:28.798Z,102536.91
2023-04-16T00:19:00.372Z,102517.97
2023-04-16T00:21:32.935Z,102520.31
2023-04-16T00:24:04.251Z,102521.84
2023-04-16T00:26:35.974Z,102513.38
2023-04-16T00:29:07.721Z,102497.97
2023-04-16T00:31:39.517Z,102511.72
2023-04-16T00:34:10.865Z,102499.09
2023-04-16T00:36:42.076Z,102507.75
2023-04-16T00:39:13.708Z,102515.09
2023-04-16T00:41:46.642Z,102495.38
2023-04-16T00:44:18.344Z,102487.44
2023-04-16T00:46:49.600Z,102488.72
2023-04-16T00:49:21.088Z,102489.19
2023-04-16T00:51:53.231Z,102478.22
2023-04-16T00:54:24.919Z,102482.97
2023-04-16T00:56:55.597Z,102479.41
2023-04-16T00:59:26.775Z,102482.16
2023-04-16T01:01:58.150Z,102475.13
2023-04-16T01:04:32.200Z,102479.50
2023-04-16T01:07:03.714Z,102481.94
2023-04-16T01:09:37.209Z,102471.16
2023-04-16T01:12:08.313Z,102454.63
2023-04-16T01:14:39.951Z,102448.72
2023-04-16T01:17:17.378Z,102451.81
2023-04-16T01:19:49.080Z,102442.75
2023-04-16T01:22:21.480Z,102433.78
2023-04-16T01:24:53.285Z,102429.13
2023-04-16T01:27:24.504Z,102439.47
2023-04-16T01:29:55.906Z,102426.50
2023-04-16T01:32:36.981Z,102426.69
2023-04-16T01:35:08.614Z,102418.09
2023-04-16T01:37:39.225Z,102405.88
2023-04-16T01:40:11.009Z,102410.56
2023-04-16T01:42:42.557Z,102417.09
2023-04-16T01:45:14.508Z,102426.66
2023-04-16T01:47:45.869Z,102426.94
2023-04-16T01:50:17.818Z,102423.44
2023-04-16T01:52:49.139Z,102412.75
2023-04-16T01:55:20.881Z,102418.88
2023-04-16T01:57:53.553Z,102426.59
2023-04-16T02:00:29.230Z,102414.81
2023-04-16T02:03:00.427Z,102407.97
2023-04-16T02:05:32.712Z,102396.53
2023-04-16T02:08:04.668Z,102401.00
2023-04-16T02:10:35.473Z,102392.59
2023-04-16T02:13:07.215Z,102399.13
2023-04-16T02:15:38.734Z,102401.88
2023-04-16T02:18:10.328Z,102399.53
2023-04-16T02:20:45.617Z,102405.38
2023-04-16T02:23:19.175Z,102406.19
2023-04-16T02:25:50.590Z,102415.66
2023-04-16T02:28:22.312Z,102420.59
2023-04-16T02:30:54.686Z,102421.44
2023-04-16T02:33:27.784Z,102420.63
2023-04-16T02:36:04.350Z,102418.84
2023-04-16T02:38:38.905Z,102423.66
2023-04-16T02:41:10.915Z,102423.06
2023-04-16T02:43:42.519Z,102422.81
2023-04-16T02:46:14.296Z,102427.94
2023-04-16T02:48:45.826Z,102424.25
2023-04-16T02:51:23.362Z,102428.09
2023-04-16T02:53:55.517Z,102429.13
2023-04-16T02:56:26.617Z,102416.84
2023-04-16T02:58:58.171Z,102423.56
2023-04-16T03:01:30.543Z,102425.97
2023-04-16T03:04:02.388Z,102424.16
2023-04-16T03:06:34.118Z,102426.75
2023-04-16T03:09:05.809Z,102421.41
2023-04-16T03:11:37.095Z,102426.75
2023-04-16T03:14:09.167Z,102423.88
2023-04-16T03:16:41.287Z,102428.81
2023-04-16T03:19:13.335Z,102437.34
2023-04-16T03:21:44.793Z,102439.22
2023-04-16T03:24:16.207Z,102424.88
2023-04-16T03:26:47.060Z,102432.66
2023-04-16T03:29:18.542Z,102430.44
2023-04-16T03:31:51.219Z,102419.72
2023-04-16T03:34:22.976Z,102427.44
2023-04-16T03:36:54.630Z,102436.47
2023-04-16T03:39:25.687Z,102441.63
2023-04-16T03:41:57.150Z,102437.03
2023-04-16T03:44:29.201Z,102430.13
2023-04-16T03:47:00.752Z,102437.41
2023-04-16T03:49:32.890Z,102443.94
2023-04-16T03:52:04.696Z,102447.50
2023-04-16T03:54:35.507Z,102448.47
2023-04-16T03:57:29.316Z,102440.25
2023-04-16T04:00:07.609Z,102449.72
2023-04-16T04:02:48.721Z,102445.41
2023-04-16T04:05:23.163Z,102440.00
2023-04-16T04:07:55.846Z,102442.69
2023-04-16T04:10:27.565Z,102453.84
2023-04-16T04:12:59.127Z,102445.72
2023-04-16T04:15:31.587Z,102438.84
2023-04-16T04:18:03.277Z,102440.78
2023-04-16T04:20:35.546Z,102447.50
2023-04-16T04:23:06.754Z,102444.34
2023-04-16T04:25:38.473Z,102445.06
2023-04-16T04:28:11.787Z,102444.88
2023-04-16T04:30:44.092Z,102444.63
2023-04-16T04:33:16.493Z,102443.41
2023-04-16T04:35:47.905Z,102446.19
2023-04-16T04:38:23.530Z,102437.25
2023-04-16T04:40:55.747Z,102433.03
2023-04-16T04:43:28.169Z,102437.84
2023-04-16T04:45:59.672Z,102435.19
2023-04-16T04:48:32.634Z,102444.81
2023-04-16T04:51:05.657Z,102445.16
2023-04-16T04:53:37.182Z,102438.88
2023-04-16T04:56:12.818Z,102438.13
2023-04-16T04:58:44.865Z,102447.13
2023-04-16T05:01:16.422Z,102446.28
2023-04-16T05:03:47.650Z,102446.72
2023-04-16T05:06:18.628Z,102450.41
2023-04-16T05:08:50.026Z,102443.97
2023-04-16T05:11:22.117Z,102441.50
2023-04-16T05:13:53.563Z,102459.91
2023-04-16T05:16:33.517Z,102458.59
2023-04-16T05:19:05.499Z,102453.44
2023-04-16T05:21:37.992Z,102461.56
2023-04-16T05:24:09.805Z,102450.78
2023-04-16T05:26:41.389Z,102454.47
2023-04-16T05:29:12.710Z,102462.53
2023-04-16T05:31:44.132Z,102460.56
2023-04-16T05:34:15.689Z,102452.63
2023-04-16T05:36:47.606Z,102454.78
2023-04-16T05:39:19.553Z,102454.94
2023-04-16T05:41:50.708Z,102459.41
2023-04-16T05:44:22.142Z,102464.00
2023-04-16T05:46:54.317Z,102457.66
2023-04-16T05:49:25.873Z,102466.09
2023-04-16T05:51:56.863Z,102462.88
2023-04-16T05:54:28.365Z,102457.66
2023-04-16T05:56:59.686Z,102456.84
2023-04-16T05:59:34.063Z,102459.69
2023-04-16T06:02:06.139Z,102468.59
2023-04-16T06:04:37.781Z,102475.84
2023-04-16T06:07:08.884Z,102471.78
2023-04-16T06:09:40.111Z,102477.25
2023-04-16T06:12:12.226Z,102469.31
2023-04-16T06:14:42.579Z,102472.16
2023-04-16T06:17:13.752Z,102475.59
2023-04-16T06:19:45.168Z,102476.31
2023-04-16T06:22:17.356Z,102478.78
2023-04-16T06:24:48.542Z,102487.78
2023-04-16T06:27:19.946Z,102489.47
2023-04-16T06:29:51.308Z,102482.84
2023-04-16T06:32:22.515Z,102489.31
2023-04-16T06:34:53.520Z,102499.84
2023-04-16T06:37:24.664Z,102500.44
2023-04-16T06:39:55.812Z,102502.09
2023-04-16T06:42:26.943Z,102507.19
2023-04-16T06:44:58.307Z,102509.31
2023-04-16T06:47:29.649Z,102515.22
2023-04-16T06:50:00.857Z,102511.81
2023-04-16T06:52:33.647Z,102511.09
2023-04-16T06:55:05.327Z,102521.16
2023-04-16T06:57:37.495Z,102524.09
2023-04-16T07:00:09.820Z,102530.38
2023-04-16T07:02:41.022Z,102524.09
2023-04-16T07:05:11.791Z,102535.09
2023-04-16T07:07:43.063Z,102535.91
2023-04-16T07:10:14.568Z,102529.72
2023-04-16T07:12:45.838Z,102538.59
2023-04-16T07:15:16.918Z,102532.59
2023-04-16T07:17:48.422Z,102534.97
2023-04-16T07:20:19.951Z,102531.31
2023-04-16T07:22:52.112Z,102529.16
2023-04-16T07:25:23.752Z,102535.66
2023-04-16T07:27:55.085Z,102523.66
2023-04-16T07:30:26.376Z,102525.22
2023-04-16T07:32:58.103Z,102531.59
2023-04-16T07:35:29.962Z,102532.88
2023-04-16T07:38:00.568Z,102534.81
2023-04-16T07:40:33.789Z,102538.22
2023-04-16T07:43:06.807Z,102533.72
2023-04-16T07:45:38.109Z,102526.16
2023-04-16T07:48:09.675Z,102534.88
2023-04-16T07:50:40.879Z,102532.16
2023-04-16T07:53:12.322Z,102535.97
2023-04-16T07:55:43.204Z,102539.47
2023-04-16T07:58:14.428Z,102536.91
2023-04-16T08:00:47.754Z,102546.47
2023-04-16T08:03:20.074Z,102543.38
2023-04-16T08:05:51.502Z,102540.78
2023-04-16T08:08:23.041Z,102542.19
2023-04-16T08:10:57.270Z,102539.09
2023-04-16T08:13:28.855Z,102534.97
2023-04-16T08:16:00.177Z,102536.16
2023-04-16T08:18:31.582Z,102543.59
2023-04-16T08:21:03.194Z,102542.88
2023-04-16T08:23:35.491Z,102537.44
2023-04-16T08:26:06.771Z,102541.97
2023-04-16T08:28:37.881Z,102547.03
2023-04-16T08:31:09.163Z,102550.78
2023-04-16T08:33:40.379Z,102542.53
2023-04-16T08:36:12.003Z,102553.28
2023-04-16T08:38:42.788Z,102562.84
2023-04-16T08:41:15.440Z,102564.72
2023-04-16T08:43:47.647Z,102562.72
2023-04-16T08:46:20.335Z,102573.06
2023-04-16T08:48:52.084Z,102580.66
2023-04-16T08:51:25.792Z,102574.38
2023-04-16T08:54:05.219Z,102568.56
2023-04-16T08:56:40.275Z,102572.31
2023-04-16T08:59:12.798Z,102572.53
2023-04-16T09:01:44.003Z,102575.72
2023-04-16T09:04:17.284Z,102567.56
2023-04-16T09:06:48.961Z,102569.81
2023-04-16T09:09:24.103Z,102570.06
2023-04-16T09:11:56.156Z,102577.59
2023-04-16T09:14:26.623Z,102577.28
2023-04-16T09:16:57.684Z,102583.53
2023-04-16T09:19:30.602Z,102589.81
2023-04-16T09:22:02.249Z,102584.97
2023-04-16T09:24:34.451Z,102575.84
2023-04-16T09:27:05.625Z,102579.09
2023-04-16T09:29:39.733Z,102586.16
2023-04-16T09:32:13.098Z,102575.28
2023-04-16T09:34:56.566Z,102576.94
2023-04-16T09:37:32.136Z,102583.78
2023-04-16T09:40:05.455Z,102589.44
2023-04-16T09:42:41.532Z,102588.94
2023-04-16T09:45:13.359Z,102585.38
2023-04-16T09:47:46.956Z,102596.63
2023-04-16T09:50:19.859Z,102596.03
2023-04-16T09:52:53.148Z,102601.25
2023-04-16T09:55:29.914Z,102603.72
2023-04-16T09:58:05.067Z,102609.09
2023-04-16T10:00:36.423Z,102602.84
2023-04-16T10:03:14.831Z,102600.91
2023-04-16T10:05:46.101Z,102606.00
2023-04-16T10:08:18.868Z,102601.19
2023-04-16T10:10:50.093Z,102602.03
2023-04-16T10:13:21.367Z,102610.13
2023-04-16T10:15:52.812Z,102607.78
2023-04-16T10:18:24.769Z,102596.38
2023-04-16T10:20:56.386Z,102608.16
2023-04-16T10:23:27.679Z,102604.69
2023-04-16T10:26:01.695Z,102609.97
2023-04-16T10:28:33.252Z,102618.94
2023-04-16T10:31:11.003Z,102617.91
2023-04-16T10:33:43.317Z,102620.38
2023-04-16T10:36:19.638Z,102628.28
2023-04-16T10:38:55.959Z,102632.44
2023-04-16T10:41:28.590Z,102638.25
2023-04-16T10:44:13.087Z,102629.25
2023-04-16T10:46:46.282Z,102627.53
2023-04-16T10:49:22.191Z,102627.44
2023-04-16T10:52:08.875Z,102622.50
2023-04-16T10:54:40.676Z,102617.00
2023-04-16T10:57:22.705Z,102620.09
2023-04-16T10:59:54.365Z,102613.13
2023-04-16T11:02:31.366Z,102610.88
2023-04-16T11:05:04.330Z,102592.81
2023-04-16T11:07:37.414Z,102594.72
2023-04-16T11:10:09.576Z,102596.44
2023-04-16T11:12:49.890Z,102601.19
2023-04-16T11:15:21.474Z,102583.47
2023-04-16T11:17:54.144Z,102594.63
2023-04-16T11:20:27.556Z,102599.69
2023-04-16T11:23:00.672Z,102592.22
2023-04-16T11:25:35.685Z,102593.81
2023-04-16T11:28:07.681Z,102589.66
2023-04-16T11:30:41.002Z,102586.69
2023-04-16T11:33:13.663Z,102589.28
2023-04-16T11:35:45.030Z,102583.72
2023-04-16T11:38:16.236Z,102578.50
2023-04-16T11:40:47.556Z,102579.63
2023-04-16T11:43:19.562Z,102572.13
2023-04-16T11:46:12.821Z,102569.16
2023-04-16T11:48:57.558Z,102557.75
2023-04-16T11:51:28.933Z,102555.38
2023-04-16T11:54:00.401Z,102560.59
2023-04-16T11:56:34.381Z,102559.66
2023-04-16T11:59:15.973Z,102558.00
2023-04-16T12:01:55.014Z,102559.72
2023-04-16T12:04:28.745Z,102551.50
2023-04-16T12:07:16.200Z,102546.66
2023-04-16T12:09:47.524Z,102545.91
2023-04-16T12:12:34.523Z,102551.00
2023-04-16T12:15:06.657Z,102541.16
2023-04-16T12:17:39.796Z,102543.28
2023-04-16T12:20:12.610Z,102547.25
2023-04-16T12:22:48.765Z,102552.09
2023-04-16T12:25:20.187Z,102542.34
2023-04-16T12:27:54.031Z,102544.50
2023-04-16T12:30:28.053Z,102541.63
2023-04-16T12:33:18.758Z,102543.91
2023-04-16T12:35:50.534Z,102534.97
2023-04-16T12:38:24.290Z,102540.03
2023-04-16T12:40:58.292Z,102540.81
2023-04-16T12:43:30.017Z,102544.50
2023-04-16T12:46:03.524Z,102542.28
2023-04-16T12:48:36.133Z,102553.31
2023-04-16T12:51:07.424Z,102553.09
2023-04-16T12:53:38.486Z,102548.34
2023-04-16T12:56:09.691Z,102541.69
2023-04-16T12:58:41.429Z,102543.53
2023-04-16T13:01:13.536Z,102539.59
2023-04-16T13:03:44.979Z,102542.16
2023-04-16T13:06:17.289Z,102540.91
2023-04-16T13:08:48.789Z,102544.03
2023-04-16T13:11:20.816Z,102549.25
2023-04-16T13:13:52.411Z,102547.38
2023-04-16T13:16:23.819Z,102545.31
2023-04-16T13:18:55.174Z,102543.03
2023-04-16T13:21:26.492Z,102547.03
2023-04-16T13:23:57.998Z,102549.75
2023-04-16T13:26:29.356Z,102546.25
2023-04-16T13:29:00.119Z,102547.81
2023-04-16T13:31:31.772Z,102550.09
2023-04-16T13:34:03.210Z,102553.63
2023-04-16T13:36:35.111Z,102559.81
2023-04-16T13:39:12.770Z,102554.16
2023-04-16T13:41:44.006Z,102554.38
2023-04-16T13:44:15.452Z,102542.56
2023-04-16T13:46:49.220Z,102557.16
2023-04-16T13:49:20.915Z,102554.25
2023-04-16T13:51:51.745Z,102561.16
2023-04-16T13:54:23.157Z,102556.16
2023-04-16T13:56:53.966Z,102556.38
2023-04-16T13:59:25.254Z,102548.00
2023-04-16T14:01:56.896Z,102548.44
2023-04-16T14:04:28.446Z,102549.72
2023-04-16T14:06:59.952Z,102545.94
2023-04-16T14:09:31.067Z,102547.59
2023-04-16T14:12:02.300Z,102546.50
2023-04-16T14:14:33.471Z,102542.97
2023-04-16T14:17:04.836Z,102544.41
2023-04-16T14:19:36.245Z,102544.88
2023-04-16T14:22:09.271Z,102545.72
2023-04-16T14:24:41.163Z,102540.91
2023-04-16T14:27:12.702Z,102545.09
2023-04-16T14:29:43.921Z,102547.38
2023-04-16T14:32:15.890Z,102549.03
2023-04-16T14:34:47.788Z,102550.31
2023-04-16T14:37:20.220Z,102550.13
2023-04-16T14:39:51.928Z,102543.47
2023-04-16T14:42:24.037Z,102533.75
2023-04-16T14:44:55.522Z,102542.28
2023-04-16T14:47:26.943Z,102535.84
2023-04-16T14:49:58.271Z,102537.31
2023-04-16T14:52:30.110Z,102528.91
2023-04-16T14:55:01.552Z,102531.44
2023-04-16T14:57:34.808Z,102533.28
2023-04-16T15:00:13.486Z,102530.75
2023-04-16T15:02:45.234Z,102531.84
2023-04-16T15:05:17.218Z,102541.00
2023-04-16T15:07:48.825Z,102533.88
2023-04-16T15:10:20.318Z,102536.19
2023-04-16T15:12:51.808Z,102525.78
2023-04-16T15:15:23.357Z,102530.97
2023-04-16T15:17:54.995Z,102527.00
2023-04-16T15:20:26.683Z,102530.97
2023-04-16T15:22:58.361Z,102531.19
2023-04-16T15:25:29.847Z,102533.88
2023-04-16T15:28:01.425Z,102519.28
2023-04-16T15:30:33.644Z,102515.75
2023-04-16T15:33:05.506Z,102510.34
2023-04-16T15:35:42.573Z,102499.53
2023-04-16T15:38:14.333Z,102501.47
2023-04-16T15:40:45.833Z,102490.72
2023-04-16T15:43:18.396Z,102502.53
2023-04-16T15:45:49.738Z,102505.31
2023-04-16T15:48:21.168Z,102510.53
2023-04-16T15:50:53.348Z,102504.97
2023-04-16T15:53:25.198Z,102497.50
2023-04-16T15:55:55.951Z,102500.66
2023-04-16T15:58:27.163Z,102490.28
2023-04-16T16:00:58.902Z,102496.72
2023-04-16T16:03:31.115Z,102494.25
2023-04-16T16:06:05.250Z,102485.53
2023-04-16T16:08:37.424Z,102491.97
2023-04-16T16:11:08.898Z,102494.47
2023-04-16T16:13:40.056Z,102488.47
2023-04-16T16:16:11.080Z,102485.16
2023-04-16T16:18:43.665Z,102492.41
2023-04-16T16:21:15.002Z,102490.78
2023-04-16T16:23:46.327Z,102488.09
2023-04-16T16:26:18.092Z,102493.69
2023-04-16T16:28:50.797Z,102494.72
2023-04-16T16:31:22.320Z,102494.34
2023-04-16T16:33:54.320Z,102500.16
2023-04-16T16:36:25.741Z,102500.75
2023-04-16T16:38:58.565Z,102499.50
2023-04-16T16:41:30.199Z,102500.53
2023-04-16T16:44:01.397Z,102499.69
2023-04-16T16:46:32.765Z,102494.94
2023-04-16T16:49:06.721Z,102486.63
2023-04-16T16:51:38.210Z,102487.69
2023-04-16T16:54:10.091Z,102480.38
2023-04-16T16:56:41.734Z,102472.72
2023-04-16T16:59:13.337Z,102487.03
2023-04-16T17:01:44.493Z,102494.09
2023-04-16T17:04:16.584Z,102487.25
2023-04-16T17:06:49.809Z,102483.09
2023-04-16T17:09:21.726Z,102490.78
2023-04-16T17:11:52.897Z,102485.19
2023-04-16T17:14:24.257Z,102491.44
2023-04-16T17:16:55.881Z,102485.81
2023-04-16T17:19:27.556Z,102489.75
2023-04-16T17:21:58.712Z,102488.91
2023-04-16T17:24:30.074Z,102488.50
2023-04-16T17:27:01.617Z,102495.16
2023-04-16T17:29:33.273Z,102486.00
2023-04-16T17:32:04.445Z,102492.44
2023-04-16T17:34:37.532Z,102493.06
2023-04-16T17:37:08.784Z,102485.34
2023-04-16T17:39:40.187Z,102489.31
2023-04-16T17:42:11.373Z,102479.31
2023-04-16T17:44:42.669Z,102472.44
2023-04-16T17:47:14.233Z,102473.06
2023-04-16T17:49:46.004Z,102471.34
2023-04-16T17:52:16.790Z,102468.41
2023-04-16T17:54:48.200Z,102470.69
2023-04-16T17:57:19.703Z,102475.88
2023-04-16T17:59:51.261Z,102476.72
2023-04-16T18:02:22.439Z,102475.47
2023-04-16T18:04:53.757Z,102475.25
2023-04-16T18:07:25.016Z,102470.50
2023-04-16T18:09:56.420Z,102457.38
2023-04-16T18:12:27.578Z,102463.00
2023-04-16T18:14:58.853Z,102455.13
2023-04-16T18:17:30.505Z,102453.03
2023-04-16T18:20:01.433Z,102445.97
2023-04-16T18:22:33.633Z,102441.41
2023-04-16T18:25:05.292Z,102439.56
2023-04-16T18:27:36.903Z,102434.41
2023-04-16T18:32:56.120Z,102427.16
2023-04-16T18:35:32.894Z,102431.50
2023-04-16T18:38:04.282Z,102425.69
2023-04-16T18:40:39.421Z,102424.25
2023-04-16T18:43:10.580Z,102416.59
2023-04-16T18:45:41.804Z,102431.53
2023-04-16T18:48:13.007Z,102425.94
2023-04-16T18:50:44.505Z,102428.44
2023-04-16T18:53:25.458Z,102420.53
2023-04-16T18:55:56.918Z,102431.53
2023-04-16T18:58:29.647Z,102428.84
2023-04-16T19:01:01.057Z,102431.53
2023-04-16T19:03:32.580Z,102421.34
2023-04-16T19:06:03.923Z,102419.47
2023-04-16T19:08:35.321Z,102424.03
2023-04-16T19:11:06.970Z,102426.34
2023-04-16T19:13:39.586Z,102420.09
2023-04-16T19:16:12.732Z,102415.13
2023-04-16T19:18:44.095Z,102406.19
2023-04-16T19:21:15.377Z,102412.44
2023-04-16T19:23:46.931Z,102413.69
2023-04-16T19:26:18.361Z,102406.22
2023-04-16T19:28:49.754Z,102414.53
2023-04-16T19:31:21.071Z,102418.25
2023-04-16T19:33:52.331Z,102404.94
2023-04-16T19:36:23.561Z,102420.72
2023-04-16T19:38:55.358Z,102426.53
2023-04-16T19:41:26.330Z,102431.91
2023-04-16T19:43:57.603Z,102435.16
2023-04-16T19:46:28.954Z,102424.59
2023-04-16T19:49:00.236Z,102430.53
2023-04-16T19:51:32.730Z,102437.00
2023-04-16T19:54:03.796Z,102436.50
2023-04-16T19:56:35.549Z,102444.28
2023-04-16T19:59:06.729Z,102445.72
2023-04-16T20:01:38.362Z,102446.22
2023-04-16T20:04:09.436Z,102456.66
2023-04-16T20:06:40.838Z,102455.69
2023-04-16T20:09:12.856Z,102459.84
2023-04-16T20:11:43.446Z,102461.50
2023-04-16T20:14:15.436Z,102463.50
2023-04-16T20:16:47.272Z,102459.25
2023-04-16T20:19:23.624Z,102465.84
2023-04-16T20:21:55.471Z,102479.72
2023-04-16T20:24:28.086Z,102472.31
2023-04-16T20:26:59.509Z,102470.88
2023-04-16T20:29:30.737Z,102479.13
2023-04-16T20:32:02.228Z,102481.00
2023-04-16T20:34:33.476Z,102480.34
2023-04-16T20:37:04.992Z,102476.06
2023-04-16T20:39:37.561Z,102482.06
2023-04-16T20:42:11.996Z,102486.28
2023-04-16T20:44:43.184Z,102489.31
2023-04-16T20:47:16.200Z,102487.16
2023-04-16T20:49:50.308Z,102489.28
2023-04-16T20:52:21.556Z,102490.94
2023-04-16T20:54:53.765Z,102493.63
2023-04-16T20:57:24.813Z,102498.59
2023-04-16T20:59:55.944Z,102495.75
2023-04-16T21:02:29.340Z,102488.19
2023-04-16T21:05:00.791Z,102485.97
2023-04-16T21:07:34.474Z,102491.47
2023-04-16T21:10:05.730Z,102487.75
2023-04-16T21:12:37.966Z,102484.84
2023-04-16T21:15:09.978Z,102486.97
2023-04-16T21:17:40.578Z,102501.63
2023-04-16T21:20:14.860Z,102497.56
2023-04-16T21:22:46.278Z,102501.53
2023-04-16T21:25:17.757Z,102492.97
2023-04-16T21:27:50.417Z,102496.94
2023-04-16T21:30:22.530Z,102490.56
2023-04-16T21:32:53.289Z,102494.75
2023-04-16T21:35:24.803Z,102485.41
2023-04-16T21:37:57.286Z,102475.28
2023-04-16T21:40:28.316Z,102483.06
2023-04-16T21:42:59.601Z,102468.81
2023-04-16T21:45:30.864Z,102484.56
2023-04-16T21:48:02.137Z,102479.16
2023-04-16T21:50:33.266Z,102483.38
2023-04-16T21:53:05.837Z,102473.84
2023-04-16T21:55:37.744Z,102477.19
2023-04-16T21:58:09.502Z,102458.00
2023-04-16T22:00:41.003Z,102464.41
2023-04-16T22:03:14.005Z,102459.50
2023-04-16T22:05:46.134Z,102455.16
2023-04-16T22:08:24.618Z,102463.69
2023-04-16T22:11:00.663Z,102465.84
2023-04-16T22:13:37.942Z,102458.47
2023-04-16T22:16:11.760Z,102468.22
2023-04-16T22:18:43.343Z,102462.84
2023-04-16T22:21:14.743Z,102462.47
2023-04-16T22:23:48.200Z,102460.56
2023-04-16T22:26:19.599Z,102470.44
2023-04-16T22:28:50.947Z,102471.91
2023-04-16T22:31:22.356Z,102471.06
2023-04-16T22:33:55.984Z,102464.53
2023-04-16T22:36:28.266Z,102467.13
2023-04-16T22:39:00.255Z,102468.00
2023-04-16T22:41:31.910Z,102467.75
2023-04-16T22:44:03.321Z,102459.00
2023-04-16T22:46:34.769Z,102451.00
2023-04-16T22:49:05.452Z,102456.56
2023-04-16T22:51:36.736Z,102461.78
2023-04-16T22:54:08.663Z,102452.56
2023-04-16T22:56:40.420Z,102439.84
2023-04-16T22:59:12.404Z,102456.78
2023-04-16T23:01:44.232Z,102454.38
2023-04-16T23:04:15.455Z,102445.00
2023-04-16T23:06:46.500Z,102455.41
2023-04-16T23:09:18.550Z,102443.59
2023-04-16T23:11:50.048Z,102449.38
2023-04-16T23:14:21.120Z,102452.56
2023-04-16T23:16:52.465Z,102447.91
2023-04-16T23:19:23.849Z,102445.28
2023-04-16T23:21:54.579Z,102448.00
2023-04-16T23:24:25.789Z,102451.59
2023-04-16T23:26:57.613Z,102444.06
2023-04-16T23:29:29.020Z,102452.91
2023-04-16T23:32:00.439Z,102448.47
2023-04-16T23:34:31.929Z,102457.56
2023-04-16T23:37:03.521Z,102465.44
2023-04-16T23:39:35.874Z,102444.84
2023-04-16T23:42:07.486Z,102461.59
2023-04-16T23:44:39.126Z,102446.09
2023-04-16T23:47:10.403Z,102446.13
2023-04-16T23:49:41.638Z,102435.25
2023-04-16T23:52:13.044Z,102432.28
2023-04-16T23:54:44.388Z,102436.44
2023-04-16T23:57:16.684Z,102437.03
2023-04-16T23:59:48.407Z,102431.38
